sensor_id;sensor_type;location;lat;lon;timestamp;P1;durP1;ratioP1;P2;durP2;ratioP2
9524;SDS011;15940;48.734;9.112;2023-04-06T00:00:33;6.90;;;5.47;;
9524;SDS011;15940;48.734;9.112;2023-04-06T00:02:59;7.97;;;5.13;;
9524;SDS011;15940;48.734;9.112;2023-04-06T00:05:28;7.10;;;5.57;;
9524;SDS011;15940;48.734;9.112;2023-04-06T00:07:55;8.33;;;5.33;;
9524;SDS011;15940;48.734;9.112;2023-04-06T00:10:23;8.40;;;6.07;;
9524;SDS011;15940;48.734;9.112;2023-04-06T00:12:51;8.37;;;5.67;;
9524;SDS011;15940;48.734;9.112;2023-04-06T00:15:18;7.83;;;5.60;;
9524;SDS011;15940;48.734;9.112;2023-04-06T00:17:45;6.90;;;5.33;;
9524;SDS011;15940;48.734;9.112;2023-04-06T00:20:12;9.80;;;6.63;;
9524;SDS011;15940;48.734;9.112;2023-04-06T00:22:40;6.47;;;5.67;;
9524;SDS011;15940;48.734;9.112;2023-04-06T00:25:08;6.23;;;5.40;;
9524;SDS011;15940;48.734;9.112;2023-04-06T00:27:36;7.47;;;5.90;;
9524;SDS011;15940;48.734;9.112;2023-04-06T00:30:03;6.53;;;5.63;;
9524;SDS011;15940;48.734;9.112;2023-04-06T00:32:31;8.13;;;5.90;;
9524;SDS011;15940;48.734;9.112;2023-04-06T00:34:58;7.23;;;6.07;;
9524;SDS011;15940;48.734;9.112;2023-04-06T00:37:25;8.60;;;6.27;;
9524;SDS011;15940;48.734;9.112;2023-04-06T00:39:54;8.80;;;5.80;;
9524;SDS011;15940;48.734;9.112;2023-04-06T00:42:21;7.63;;;6.23;;
9524;SDS011;15940;48.734;9.112;2023-04-06T00:44:51;8.13;;;5.77;;
9524;SDS011;15940;48.734;9.112;2023-04-06T00:47:18;8.23;;;6.37;;
9524;SDS011;15940;48.734;9.112;2023-04-06T00:49:45;9.47;;;6.40;;
9524;SDS011;15940;48.734;9.112;2023-04-06T00:52:12;9.20;;;6.37;;
9524;SDS011;15940;48.734;9.112;2023-04-06T00:54:39;9.40;;;5.70;;
9524;SDS011;15940;48.734;9.112;2023-04-06T00:57:08;9.00;;;5.73;;
9524;SDS011;15940;48.734;9.112;2023-04-06T00:59:35;7.77;;;5.93;;
9524;SDS011;15940;48.734;9.112;2023-04-06T01:02:02;6.87;;;6.10;;
9524;SDS011;15940;48.734;9.112;2023-04-06T01:04:29;7.93;;;5.43;;
9524;SDS011;15940;48.734;9.112;2023-04-06T01:06:56;8.23;;;5.90;;
9524;SDS011;15940;48.734;9.112;2023-04-06T01:09:23;6.30;;;5.57;;
9524;SDS011;15940;48.734;9.112;2023-04-06T01:11:51;11.40;;;6.03;;
9524;SDS011;15940;48.734;9.112;2023-04-06T01:14:19;7.10;;;5.90;;
9524;SDS011;15940;48.734;9.112;2023-04-06T01:16:46;6.37;;;5.60;;
9524;SDS011;15940;48.734;9.112;2023-04-06T01:19:13;7.40;;;5.67;;
9524;SDS011;15940;48.734;9.112;2023-04-06T01:21:40;6.83;;;6.00;;
9524;SDS011;15940;48.734;9.112;2023-04-06T01:24:09;8.13;;;6.10;;
9524;SDS011;15940;48.734;9.112;2023-04-06T01:26:37;10.63;;;6.20;;
9524;SDS011;15940;48.734;9.112;2023-04-06T01:29:06;7.83;;;6.57;;
9524;SDS011;15940;48.734;9.112;2023-04-06T01:31:33;8.47;;;6.70;;
9524;SDS011;15940;48.734;9.112;2023-04-06T01:34:00;8.10;;;6.03;;
9524;SDS011;15940;48.734;9.112;2023-04-06T01:36:27;7.40;;;6.17;;
9524;SDS011;15940;48.734;9.112;2023-04-06T01:38:54;8.23;;;6.43;;
9524;SDS011;15940;48.734;9.112;2023-04-06T01:41:23;7.73;;;6.23;;
9524;SDS011;15940;48.734;9.112;2023-04-06T01:43:50;10.23;;;6.53;;
9524;SDS011;15940;48.734;9.112;2023-04-06T01:46:19;7.53;;;6.07;;
9524;SDS011;15940;48.734;9.112;2023-04-06T01:48:46;8.33;;;6.27;;
9524;SDS011;15940;48.734;9.112;2023-04-06T01:51:13;7.40;;;6.47;;
9524;SDS011;15940;48.734;9.112;2023-04-06T01:53:40;7.27;;;5.73;;
9524;SDS011;15940;48.734;9.112;2023-04-06T01:56:07;9.37;;;6.43;;
9524;SDS011;15940;48.734;9.112;2023-04-06T01:58:35;8.67;;;6.07;;
9524;SDS011;15940;48.734;9.112;2023-04-06T02:01:02;10.90;;;7.53;;
9524;SDS011;15940;48.734;9.112;2023-04-06T02:03:29;7.70;;;6.73;;
9524;SDS011;15940;48.734;9.112;2023-04-06T02:05:56;9.23;;;6.47;;
9524;SDS011;15940;48.734;9.112;2023-04-06T02:08:23;8.83;;;6.27;;
9524;SDS011;15940;48.734;9.112;2023-04-06T02:10:50;7.90;;;6.40;;
9524;SDS011;15940;48.734;9.112;2023-04-06T02:13:20;8.33;;;6.53;;
9524;SDS011;15940;48.734;9.112;2023-04-06T02:15:48;8.97;;;6.90;;
9524;SDS011;15940;48.734;9.112;2023-04-06T02:18:15;9.73;;;7.20;;
9524;SDS011;15940;48.734;9.112;2023-04-06T02:20:43;7.00;;;6.10;;
9524;SDS011;15940;48.734;9.112;2023-04-06T02:23:10;7.20;;;6.20;;
9524;SDS011;15940;48.734;9.112;2023-04-06T02:25:37;7.07;;;6.37;;
9524;SDS011;15940;48.734;9.112;2023-04-06T02:28:05;11.00;;;6.27;;
9524;SDS011;15940;48.734;9.112;2023-04-06T02:30:32;8.63;;;6.60;;
9524;SDS011;15940;48.734;9.112;2023-04-06T02:33:00;8.73;;;5.97;;
9524;SDS011;15940;48.734;9.112;2023-04-06T02:35:28;7.83;;;6.33;;
9524;SDS011;15940;48.734;9.112;2023-04-06T02:37:56;7.33;;;6.10;;
9524;SDS011;15940;48.734;9.112;2023-04-06T02:40:23;9.13;;;6.10;;
9524;SDS011;15940;48.734;9.112;2023-04-06T02:42:50;7.93;;;6.60;;
9524;SDS011;15940;48.734;9.112;2023-04-06T02:45:17;15.40;;;6.97;;
9524;SDS011;15940;48.734;9.112;2023-04-06T02:47:44;14.00;;;7.23;;
9524;SDS011;15940;48.734;9.112;2023-04-06T02:50:12;9.77;;;6.70;;
9524;SDS011;15940;48.734;9.112;2023-04-06T02:52:39;9.93;;;7.63;;
9524;SDS011;15940;48.734;9.112;2023-04-06T02:55:07;7.47;;;5.97;;
9524;SDS011;15940;48.734;9.112;2023-04-06T02:57:35;9.73;;;7.20;;
9524;SDS011;15940;48.734;9.112;2023-04-06T03:00:02;9.00;;;6.97;;
9524;SDS011;15940;48.734;9.112;2023-04-06T03:02:30;8.70;;;7.00;;
9524;SDS011;15940;48.734;9.112;2023-04-06T03:04:57;11.73;;;7.10;;
9524;SDS011;15940;48.734;9.112;2023-04-06T03:07:25;8.80;;;6.93;;
9524;SDS011;15940;48.734;9.112;2023-04-06T03:09:52;9.03;;;6.97;;
9524;SDS011;15940;48.734;9.112;2023-04-06T03:12:19;7.93;;;6.63;;
9524;SDS011;15940;48.734;9.112;2023-04-06T03:14:45;9.47;;;7.67;;
9524;SDS011;15940;48.734;9.112;2023-04-06T03:17:12;7.80;;;7.00;;
9524;SDS011;15940;48.734;9.112;2023-04-06T03:19:39;8.67;;;6.70;;
9524;SDS011;15940;48.734;9.112;2023-04-06T03:22:06;8.13;;;6.43;;
9524;SDS011;15940;48.734;9.112;2023-04-06T03:24:35;8.53;;;6.30;;
9524;SDS011;15940;48.734;9.112;2023-04-06T03:27:02;9.30;;;6.77;;
9524;SDS011;15940;48.734;9.112;2023-04-06T03:29:29;7.37;;;6.57;;
9524;SDS011;15940;48.734;9.112;2023-04-06T03:31:56;9.63;;;7.00;;
9524;SDS011;15940;48.734;9.112;2023-04-06T03:34:23;7.67;;;6.40;;
9524;SDS011;15940;48.734;9.112;2023-04-06T03:36:50;8.30;;;6.83;;
9524;SDS011;15940;48.734;9.112;2023-04-06T03:39:16;8.23;;;6.83;;
9524;SDS011;15940;48.734;9.112;2023-04-06T03:41:45;8.23;;;6.53;;
9524;SDS011;15940;48.734;9.112;2023-04-06T03:44:12;10.07;;;6.37;;
9524;SDS011;15940;48.734;9.112;2023-04-06T03:46:38;8.13;;;7.03;;
9524;SDS011;15940;48.734;9.112;2023-04-06T03:49:05;9.60;;;6.80;;
9524;SDS011;15940;48.734;9.112;2023-04-06T03:51:32;9.20;;;6.87;;
9524;SDS011;15940;48.734;9.112;2023-04-06T03:53:59;7.60;;;6.53;;
9524;SDS011;15940;48.734;9.112;2023-04-06T03:56:26;7.90;;;6.40;;
9524;SDS011;15940;48.734;9.112;2023-04-06T03:58:54;8.67;;;6.70;;
9524;SDS011;15940;48.734;9.112;2023-04-06T04:01:21;8.17;;;6.43;;
9524;SDS011;15940;48.734;9.112;2023-04-06T04:03:48;6.80;;;6.10;;
9524;SDS011;15940;48.734;9.112;2023-04-06T04:06:15;6.63;;;5.90;;
9524;SDS011;15940;48.734;9.112;2023-04-06T04:08:42;7.53;;;6.00;;
9524;SDS011;15940;48.734;9.112;2023-04-06T04:11:09;8.03;;;6.90;;
9524;SDS011;15940;48.734;9.112;2023-04-06T04:13:35;15.20;;;6.57;;
9524;SDS011;15940;48.734;9.112;2023-04-06T04:16:04;10.27;;;6.60;;
9524;SDS011;15940;48.734;9.112;2023-04-06T04:18:31;8.40;;;7.00;;
9524;SDS011;15940;48.734;9.112;2023-04-06T04:20:58;9.33;;;6.83;;
9524;SDS011;15940;48.734;9.112;2023-04-06T04:23:25;7.33;;;6.43;;
9524;SDS011;15940;48.734;9.112;2023-04-06T04:25:52;8.87;;;6.57;;
9524;SDS011;15940;48.734;9.112;2023-04-06T04:28:18;8.50;;;6.70;;
9524;SDS011;15940;48.734;9.112;2023-04-06T04:30:45;8.60;;;6.87;;
9524;SDS011;15940;48.734;9.112;2023-04-06T04:33:14;7.83;;;6.17;;
9524;SDS011;15940;48.734;9.112;2023-04-06T04:35:40;8.40;;;6.97;;
9524;SDS011;15940;48.734;9.112;2023-04-06T04:38:07;9.27;;;6.53;;
9524;SDS011;15940;48.734;9.112;2023-04-06T04:40:34;10.97;;;6.77;;
9524;SDS011;15940;48.734;9.112;2023-04-06T04:43:01;8.53;;;6.53;;
9524;SDS011;15940;48.734;9.112;2023-04-06T04:45:28;8.50;;;7.03;;
9524;SDS011;15940;48.734;9.112;2023-04-06T04:47:55;9.90;;;6.97;;
9524;SDS011;15940;48.734;9.112;2023-04-06T04:50:23;10.83;;;7.37;;
9524;SDS011;15940;48.734;9.112;2023-04-06T04:52:50;10.80;;;7.20;;
9524;SDS011;15940;48.734;9.112;2023-04-06T04:55:17;8.43;;;6.47;;
9524;SDS011;15940;48.734;9.112;2023-04-06T04:57:44;8.17;;;6.90;;
9524;SDS011;15940;48.734;9.112;2023-04-06T05:00:11;12.27;;;7.00;;
9524;SDS011;15940;48.734;9.112;2023-04-06T05:02:39;9.77;;;7.00;;
9524;SDS011;15940;48.734;9.112;2023-04-06T05:05:06;7.50;;;6.70;;
9524;SDS011;15940;48.734;9.112;2023-04-06T05:07:35;9.37;;;7.43;;
9524;SDS011;15940;48.734;9.112;2023-04-06T05:10:02;11.67;;;7.60;;
9524;SDS011;15940;48.734;9.112;2023-04-06T05:12:30;7.60;;;6.67;;
9524;SDS011;15940;48.734;9.112;2023-04-06T05:14:57;12.67;;;6.53;;
9524;SDS011;15940;48.734;9.112;2023-04-06T05:17:24;9.60;;;7.20;;
9524;SDS011;15940;48.734;9.112;2023-04-06T05:19:51;8.10;;;6.60;;
9524;SDS011;15940;48.734;9.112;2023-04-06T05:22:18;8.93;;;6.70;;
9524;SDS011;15940;48.734;9.112;2023-04-06T05:24:46;8.30;;;6.43;;
9524;SDS011;15940;48.734;9.112;2023-04-06T05:27:13;10.07;;;6.60;;
9524;SDS011;15940;48.734;9.112;2023-04-06T05:29:40;9.63;;;7.20;;
9524;SDS011;15940;48.734;9.112;2023-04-06T05:32:07;8.03;;;6.60;;
9524;SDS011;15940;48.734;9.112;2023-04-06T05:34:35;9.03;;;6.63;;
9524;SDS011;15940;48.734;9.112;2023-04-06T05:37:02;8.37;;;6.80;;
9524;SDS011;15940;48.734;9.112;2023-04-06T05:39:29;8.57;;;6.70;;
9524;SDS011;15940;48.734;9.112;2023-04-06T05:41:57;10.83;;;6.97;;
9524;SDS011;15940;48.734;9.112;2023-04-06T05:44:24;10.77;;;7.20;;
9524;SDS011;15940;48.734;9.112;2023-04-06T05:46:51;8.40;;;6.80;;
9524;SDS011;15940;48.734;9.112;2023-04-06T05:49:18;10.73;;;6.90;;
9524;SDS011;15940;48.734;9.112;2023-04-06T05:51:45;13.63;;;8.60;;
9524;SDS011;15940;48.734;9.112;2023-04-06T05:54:12;14.47;;;8.77;;
9524;SDS011;15940;48.734;9.112;2023-04-06T05:56:38;12.53;;;8.03;;
9524;SDS011;15940;48.734;9.112;2023-04-06T05:59:07;12.93;;;9.10;;
9524;SDS011;15940;48.734;9.112;2023-04-06T06:01:34;13.77;;;8.37;;
9524;SDS011;15940;48.734;9.112;2023-04-06T06:04:01;14.77;;;7.87;;
9524;SDS011;15940;48.734;9.112;2023-04-06T06:06:28;14.80;;;8.47;;
9524;SDS011;15940;48.734;9.112;2023-04-06T06:08:56;17.90;;;8.80;;
9524;SDS011;15940;48.734;9.112;2023-04-06T06:11:24;20.90;;;9.00;;
9524;SDS011;15940;48.734;9.112;2023-04-06T06:13:50;16.77;;;9.17;;
9524;SDS011;15940;48.734;9.112;2023-04-06T06:16:19;14.57;;;7.70;;
9524;SDS011;15940;48.734;9.112;2023-04-06T06:18:46;13.93;;;7.40;;
9524;SDS011;15940;48.734;9.112;2023-04-06T06:21:13;11.20;;;7.33;;
9524;SDS011;15940;48.734;9.112;2023-04-06T06:23:41;13.80;;;7.80;;
9524;SDS011;15940;48.734;9.112;2023-04-06T06:26:08;11.00;;;7.67;;
9524;SDS011;15940;48.734;9.112;2023-04-06T06:28:35;13.27;;;7.50;;
9524;SDS011;15940;48.734;9.112;2023-04-06T06:31:02;14.40;;;7.40;;
9524;SDS011;15940;48.734;9.112;2023-04-06T06:33:31;13.20;;;7.67;;
9524;SDS011;15940;48.734;9.112;2023-04-06T06:35:58;14.03;;;6.97;;
9524;SDS011;15940;48.734;9.112;2023-04-06T06:38:25;10.00;;;6.80;;
9524;SDS011;15940;48.734;9.112;2023-04-06T06:40:52;11.23;;;7.37;;
9524;SDS011;15940;48.734;9.112;2023-04-06T06:43:19;8.93;;;7.23;;
9524;SDS011;15940;48.734;9.112;2023-04-06T06:45:46;15.73;;;8.13;;
9524;SDS011;15940;48.734;9.112;2023-04-06T06:48:13;11.00;;;7.63;;
9524;SDS011;15940;48.734;9.112;2023-04-06T06:50:41;10.10;;;7.37;;
9524;SDS011;15940;48.734;9.112;2023-04-06T06:53:08;12.23;;;8.33;;
9524;SDS011;15940;48.734;9.112;2023-04-06T06:55:35;10.67;;;7.83;;
9524;SDS011;15940;48.734;9.112;2023-04-06T06:58:02;10.87;;;8.20;;
9524;SDS011;15940;48.734;9.112;2023-04-06T07:00:31;7.70;;;6.90;;
9524;SDS011;15940;48.734;9.112;2023-04-06T07:02:58;9.67;;;7.00;;
9524;SDS011;15940;48.734;9.112;2023-04-06T07:05:25;13.37;;;7.33;;
9524;SDS011;15940;48.734;9.112;2023-04-06T07:07:53;12.40;;;7.40;;
9524;SDS011;15940;48.734;9.112;2023-04-06T07:10:20;8.47;;;6.97;;
9524;SDS011;15940;48.734;9.112;2023-04-06T07:12:47;10.43;;;7.40;;
9524;SDS011;15940;48.734;9.112;2023-04-06T07:15:14;9.63;;;7.13;;
9524;SDS011;15940;48.734;9.112;2023-04-06T07:17:42;8.13;;;7.30;;
9524;SDS011;15940;48.734;9.112;2023-04-06T07:20:10;7.17;;;6.47;;
9524;SDS011;15940;48.734;9.112;2023-04-06T07:22:37;8.57;;;6.90;;
9524;SDS011;15940;48.734;9.112;2023-04-06T07:25:06;8.90;;;7.30;;
9524;SDS011;15940;48.734;9.112;2023-04-06T07:27:34;8.07;;;6.70;;
9524;SDS011;15940;48.734;9.112;2023-04-06T07:30:01;10.30;;;7.33;;
9524;SDS011;15940;48.734;9.112;2023-04-06T07:32:28;7.40;;;6.70;;
9524;SDS011;15940;48.734;9.112;2023-04-06T07:34:56;9.87;;;7.40;;
9524;SDS011;15940;48.734;9.112;2023-04-06T07:37:23;8.20;;;7.40;;
9524;SDS011;15940;48.734;9.112;2023-04-06T07:39:50;9.80;;;8.00;;
9524;SDS011;15940;48.734;9.112;2023-04-06T07:42:18;8.60;;;7.70;;
9524;SDS011;15940;48.734;9.112;2023-04-06T07:44:45;8.97;;;7.60;;
9524;SDS011;15940;48.734;9.112;2023-04-06T07:47:14;9.00;;;7.13;;
9524;SDS011;15940;48.734;9.112;2023-04-06T07:49:41;11.27;;;7.87;;
9524;SDS011;15940;48.734;9.112;2023-04-06T07:52:08;8.73;;;7.83;;
9524;SDS011;15940;48.734;9.112;2023-04-06T07:54:35;7.40;;;6.60;;
9524;SDS011;15940;48.734;9.112;2023-04-06T07:57:02;8.63;;;7.73;;
9524;SDS011;15940;48.734;9.112;2023-04-06T07:59:31;8.17;;;7.33;;
9524;SDS011;15940;48.734;9.112;2023-04-06T08:01:58;8.30;;;7.30;;
9524;SDS011;15940;48.734;9.112;2023-04-06T08:04:25;9.27;;;7.73;;
9524;SDS011;15940;48.734;9.112;2023-04-06T08:06:55;8.60;;;7.57;;
9524;SDS011;15940;48.734;9.112;2023-04-06T08:09:22;7.80;;;7.00;;
9524;SDS011;15940;48.734;9.112;2023-04-06T08:11:49;7.23;;;6.53;;
9524;SDS011;15940;48.734;9.112;2023-04-06T08:14:16;9.00;;;7.33;;
9524;SDS011;15940;48.734;9.112;2023-04-06T08:16:44;9.93;;;7.53;;
9524;SDS011;15940;48.734;9.112;2023-04-06T08:19:11;8.20;;;7.27;;
9524;SDS011;15940;48.734;9.112;2023-04-06T08:21:38;7.63;;;6.83;;
9524;SDS011;15940;48.734;9.112;2023-04-06T08:24:06;9.47;;;7.47;;
9524;SDS011;15940;48.734;9.112;2023-04-06T08:26:33;7.60;;;6.87;;
9524;SDS011;15940;48.734;9.112;2023-04-06T08:29:00;10.70;;;7.50;;
9524;SDS011;15940;48.734;9.112;2023-04-06T08:31:28;9.40;;;7.40;;
9524;SDS011;15940;48.734;9.112;2023-04-06T08:33:57;13.13;;;8.13;;
9524;SDS011;15940;48.734;9.112;2023-04-06T08:36:24;9.00;;;8.00;;
9524;SDS011;15940;48.734;9.112;2023-04-06T08:38:51;10.93;;;7.47;;
9524;SDS011;15940;48.734;9.112;2023-04-06T08:41:18;9.50;;;7.70;;
9524;SDS011;15940;48.734;9.112;2023-04-06T08:43:46;8.47;;;7.10;;
9524;SDS011;15940;48.734;9.112;2023-04-06T08:46:15;7.50;;;6.80;;
9524;SDS011;15940;48.734;9.112;2023-04-06T08:48:44;8.17;;;7.37;;
9524;SDS011;15940;48.734;9.112;2023-04-06T08:51:16;10.30;;;7.73;;
9524;SDS011;15940;48.734;9.112;2023-04-06T08:53:45;11.67;;;6.90;;
9524;SDS011;15940;48.734;9.112;2023-04-06T08:56:13;6.90;;;6.20;;
9524;SDS011;15940;48.734;9.112;2023-04-06T08:58:41;7.47;;;6.47;;
9524;SDS011;15940;48.734;9.112;2023-04-06T09:01:11;9.50;;;7.10;;
9524;SDS011;15940;48.734;9.112;2023-04-06T09:03:40;7.93;;;6.70;;
9524;SDS011;15940;48.734;9.112;2023-04-06T09:06:08;8.53;;;6.73;;
9524;SDS011;15940;48.734;9.112;2023-04-06T09:08:38;8.23;;;6.03;;
9524;SDS011;15940;48.734;9.112;2023-04-06T09:11:07;8.00;;;6.50;;
9524;SDS011;15940;48.734;9.112;2023-04-06T09:13:43;7.53;;;6.63;;
9524;SDS011;15940;48.734;9.112;2023-04-06T09:16:12;6.30;;;5.80;;
9524;SDS011;15940;48.734;9.112;2023-04-06T09:18:39;6.27;;;5.60;;
9524;SDS011;15940;48.734;9.112;2023-04-06T09:21:06;6.43;;;5.43;;
9524;SDS011;15940;48.734;9.112;2023-04-06T09:23:34;5.90;;;5.30;;
9524;SDS011;15940;48.734;9.112;2023-04-06T09:26:07;6.83;;;5.13;;
9524;SDS011;15940;48.734;9.112;2023-04-06T09:28:45;7.37;;;6.10;;
9524;SDS011;15940;48.734;9.112;2023-04-06T09:31:14;7.67;;;5.67;;
9524;SDS011;15940;48.734;9.112;2023-04-06T09:33:47;6.47;;;5.83;;
9524;SDS011;15940;48.734;9.112;2023-04-06T09:36:14;6.03;;;5.53;;
9524;SDS011;15940;48.734;9.112;2023-04-06T09:38:51;7.07;;;6.37;;
9524;SDS011;15940;48.734;9.112;2023-04-06T09:41:22;5.90;;;5.40;;
9524;SDS011;15940;48.734;9.112;2023-04-06T09:43:51;6.23;;;5.63;;
9524;SDS011;15940;48.734;9.112;2023-04-06T09:46:27;8.03;;;6.47;;
9524;SDS011;15940;48.734;9.112;2023-04-06T09:48:57;7.00;;;6.30;;
9524;SDS011;15940;48.734;9.112;2023-04-06T09:51:24;6.77;;;6.07;;
9524;SDS011;15940;48.734;9.112;2023-04-06T09:53:56;6.30;;;5.73;;
9524;SDS011;15940;48.734;9.112;2023-04-06T09:56:27;7.00;;;6.17;;
9524;SDS011;15940;48.734;9.112;2023-04-06T09:59:01;6.40;;;5.80;;
9524;SDS011;15940;48.734;9.112;2023-04-06T10:01:33;6.40;;;5.80;;
9524;SDS011;15940;48.734;9.112;2023-04-06T10:04:06;8.90;;;6.43;;
9524;SDS011;15940;48.734;9.112;2023-04-06T10:06:47;6.87;;;6.10;;
9524;SDS011;15940;48.734;9.112;2023-04-06T10:09:17;7.03;;;6.33;;
9524;SDS011;15940;48.734;9.112;2023-04-06T10:11:48;7.03;;;6.33;;
9524;SDS011;15940;48.734;9.112;2023-04-06T10:14:16;8.03;;;6.70;;
9524;SDS011;15940;48.734;9.112;2023-04-06T10:16:43;6.33;;;5.73;;
9524;SDS011;15940;48.734;9.112;2023-04-06T10:19:12;6.63;;;5.73;;
9524;SDS011;15940;48.734;9.112;2023-04-06T10:21:43;6.17;;;5.57;;
9524;SDS011;15940;48.734;9.112;2023-04-06T10:24:14;7.10;;;6.40;;
9524;SDS011;15940;48.734;9.112;2023-04-06T10:26:42;7.00;;;5.77;;
9524;SDS011;15940;48.734;9.112;2023-04-06T10:29:10;6.27;;;5.67;;
9524;SDS011;15940;48.734;9.112;2023-04-06T10:31:39;6.60;;;6.00;;
9524;SDS011;15940;48.734;9.112;2023-04-06T10:34:09;8.07;;;5.70;;
9524;SDS011;15940;48.734;9.112;2023-04-06T10:36:36;7.17;;;5.90;;
9524;SDS011;15940;48.734;9.112;2023-04-06T10:39:03;6.60;;;6.00;;
9524;SDS011;15940;48.734;9.112;2023-04-06T10:41:32;6.37;;;5.77;;
9524;SDS011;15940;48.734;9.112;2023-04-06T10:44:00;6.40;;;5.80;;
9524;SDS011;15940;48.734;9.112;2023-04-06T10:46:29;9.03;;;6.60;;
9524;SDS011;15940;48.734;9.112;2023-04-06T10:49:08;7.73;;;5.70;;
9524;SDS011;15940;48.734;9.112;2023-04-06T10:51:37;7.60;;;6.17;;
9524;SDS011;15940;48.734;9.112;2023-04-06T10:54:05;8.17;;;5.90;;
9524;SDS011;15940;48.734;9.112;2023-04-06T10:56:33;7.13;;;6.40;;
9524;SDS011;15940;48.734;9.112;2023-04-06T10:59:04;6.67;;;5.50;;
9524;SDS011;15940;48.734;9.112;2023-04-06T11:01:34;7.77;;;6.00;;
9524;SDS011;15940;48.734;9.112;2023-04-06T11:04:01;7.37;;;5.93;;
9524;SDS011;15940;48.734;9.112;2023-04-06T11:09:00;7.17;;;5.97;;
9524;SDS011;15940;48.734;9.112;2023-04-06T11:11:27;8.50;;;6.80;;
9524;SDS011;15940;48.734;9.112;2023-04-06T11:13:58;6.50;;;5.80;;
9524;SDS011;15940;48.734;9.112;2023-04-06T11:16:27;6.17;;;5.57;;
9524;SDS011;15940;48.734;9.112;2023-04-06T11:18:57;10.90;;;6.47;;
9524;SDS011;15940;48.734;9.112;2023-04-06T11:21:32;7.00;;;5.83;;
9524;SDS011;15940;48.734;9.112;2023-04-06T11:24:09;8.80;;;5.60;;
9524;SDS011;15940;48.734;9.112;2023-04-06T11:26:39;6.40;;;5.63;;
9524;SDS011;15940;48.734;9.112;2023-04-06T11:29:10;6.17;;;5.57;;
9524;SDS011;15940;48.734;9.112;2023-04-06T11:31:39;7.43;;;5.73;;
9524;SDS011;15940;48.734;9.112;2023-04-06T11:34:15;6.63;;;5.90;;
9524;SDS011;15940;48.734;9.112;2023-04-06T11:36:44;7.60;;;5.70;;
9524;SDS011;15940;48.734;9.112;2023-04-06T11:39:17;6.57;;;5.93;;
9524;SDS011;15940;48.734;9.112;2023-04-06T11:41:47;6.37;;;5.67;;
9524;SDS011;15940;48.734;9.112;2023-04-06T11:44:14;7.20;;;5.83;;
9524;SDS011;15940;48.734;9.112;2023-04-06T11:46:50;5.73;;;5.13;;
9524;SDS011;15940;48.734;9.112;2023-04-06T11:49:18;6.07;;;5.47;;
9524;SDS011;15940;48.734;9.112;2023-04-06T11:51:45;6.10;;;5.00;;
9524;SDS011;15940;48.734;9.112;2023-04-06T11:54:12;6.03;;;5.43;;
9524;SDS011;15940;48.734;9.112;2023-04-06T11:56:41;6.33;;;5.30;;
9524;SDS011;15940;48.734;9.112;2023-04-06T11:59:12;6.53;;;5.83;;
9524;SDS011;15940;48.734;9.112;2023-04-06T12:01:44;6.53;;;5.80;;
9524;SDS011;15940;48.734;9.112;2023-04-06T12:04:11;7.03;;;6.33;;
9524;SDS011;15940;48.734;9.112;2023-04-06T12:06:38;6.40;;;5.67;;
9524;SDS011;15940;48.734;9.112;2023-04-06T12:09:05;6.50;;;5.90;;
9524;SDS011;15940;48.734;9.112;2023-04-06T12:11:33;6.73;;;5.97;;
9524;SDS011;15940;48.734;9.112;2023-04-06T12:14:00;6.23;;;5.63;;
9524;SDS011;15940;48.734;9.112;2023-04-06T12:16:29;6.63;;;5.63;;
9524;SDS011;15940;48.734;9.112;2023-04-06T12:18:57;9.87;;;6.17;;
9524;SDS011;15940;48.734;9.112;2023-04-06T12:21:26;7.10;;;6.30;;
9524;SDS011;15940;48.734;9.112;2023-04-06T12:23:56;6.00;;;5.43;;
9524;SDS011;15940;48.734;9.112;2023-04-06T12:26:23;7.53;;;5.67;;
9524;SDS011;15940;48.734;9.112;2023-04-06T12:28:53;8.63;;;5.80;;
9524;SDS011;15940;48.734;9.112;2023-04-06T12:31:20;6.17;;;5.57;;
9524;SDS011;15940;48.734;9.112;2023-04-06T12:33:50;6.63;;;5.87;;
9524;SDS011;15940;48.734;9.112;2023-04-06T12:36:18;6.17;;;5.57;;
9524;SDS011;15940;48.734;9.112;2023-04-06T12:38:46;6.43;;;5.80;;
9524;SDS011;15940;48.734;9.112;2023-04-06T12:41:15;6.27;;;5.30;;
9524;SDS011;15940;48.734;9.112;2023-04-06T12:43:42;6.63;;;5.47;;
9524;SDS011;15940;48.734;9.112;2023-04-06T12:46:11;6.87;;;6.17;;
9524;SDS011;15940;48.734;9.112;2023-04-06T12:48:39;7.20;;;5.77;;
9524;SDS011;15940;48.734;9.112;2023-04-06T12:51:06;6.83;;;6.13;;
9524;SDS011;15940;48.734;9.112;2023-04-06T12:53:33;8.97;;;5.87;;
9524;SDS011;15940;48.734;9.112;2023-04-06T12:56:01;6.10;;;5.50;;
9524;SDS011;15940;48.734;9.112;2023-04-06T12:58:28;6.20;;;5.60;;
9524;SDS011;15940;48.734;9.112;2023-04-06T13:00:57;6.43;;;5.77;;
9524;SDS011;15940;48.734;9.112;2023-04-06T13:03:29;6.83;;;5.27;;
9524;SDS011;15940;48.734;9.112;2023-04-06T13:05:56;6.60;;;5.90;;
9524;SDS011;15940;48.734;9.112;2023-04-06T13:08:22;6.47;;;5.27;;
9524;SDS011;15940;48.734;9.112;2023-04-06T13:10:50;5.77;;;5.03;;
9524;SDS011;15940;48.734;9.112;2023-04-06T13:13:22;7.50;;;5.20;;
9524;SDS011;15940;48.734;9.112;2023-04-06T13:15:51;6.47;;;5.70;;
9524;SDS011;15940;48.734;9.112;2023-04-06T13:18:18;6.77;;;5.40;;
9524;SDS011;15940;48.734;9.112;2023-04-06T13:20:47;6.40;;;5.53;;
9524;SDS011;15940;48.734;9.112;2023-04-06T13:23:15;6.47;;;5.80;;
9524;SDS011;15940;48.734;9.112;2023-04-06T13:25:42;6.03;;;5.20;;
9524;SDS011;15940;48.734;9.112;2023-04-06T13:28:09;6.90;;;6.00;;
9524;SDS011;15940;48.734;9.112;2023-04-06T13:30:36;7.43;;;5.80;;
9524;SDS011;15940;48.734;9.112;2023-04-06T13:33:03;7.83;;;6.20;;
9524;SDS011;15940;48.734;9.112;2023-04-06T13:35:31;8.07;;;5.70;;
9524;SDS011;15940;48.734;9.112;2023-04-06T13:37:59;5.83;;;5.23;;
9524;SDS011;15940;48.734;9.112;2023-04-06T13:40:26;8.90;;;5.97;;
9524;SDS011;15940;48.734;9.112;2023-04-06T13:42:53;6.83;;;5.53;;
9524;SDS011;15940;48.734;9.112;2023-04-06T13:45:20;6.60;;;5.37;;
9524;SDS011;15940;48.734;9.112;2023-04-06T13:47:47;7.47;;;5.97;;
9524;SDS011;15940;48.734;9.112;2023-04-06T13:50:14;6.60;;;5.47;;
9524;SDS011;15940;48.734;9.112;2023-04-06T13:52:41;6.10;;;5.27;;
9524;SDS011;15940;48.734;9.112;2023-04-06T13:55:09;6.80;;;5.50;;
9524;SDS011;15940;48.734;9.112;2023-04-06T13:57:37;7.20;;;5.40;;
9524;SDS011;15940;48.734;9.112;2023-04-06T14:00:04;5.80;;;4.80;;
9524;SDS011;15940;48.734;9.112;2023-04-06T14:02:34;5.67;;;5.17;;
9524;SDS011;15940;48.734;9.112;2023-04-06T14:05:01;7.03;;;5.20;;
9524;SDS011;15940;48.734;9.112;2023-04-06T14:07:28;7.43;;;5.43;;
9524;SDS011;15940;48.734;9.112;2023-04-06T14:09:55;5.90;;;5.30;;
9524;SDS011;15940;48.734;9.112;2023-04-06T14:12:24;7.63;;;5.77;;
9524;SDS011;15940;48.734;9.112;2023-04-06T14:14:52;5.83;;;5.20;;
9524;SDS011;15940;48.734;9.112;2023-04-06T14:17:19;7.30;;;5.10;;
9524;SDS011;15940;48.734;9.112;2023-04-06T14:19:46;5.30;;;4.80;;
9524;SDS011;15940;48.734;9.112;2023-04-06T14:22:13;8.93;;;5.33;;
9524;SDS011;15940;48.734;9.112;2023-04-06T14:24:40;6.90;;;5.30;;
9524;SDS011;15940;48.734;9.112;2023-04-06T14:27:07;5.40;;;4.90;;
9524;SDS011;15940;48.734;9.112;2023-04-06T14:29:35;6.63;;;4.60;;
9524;SDS011;15940;48.734;9.112;2023-04-06T14:32:02;8.07;;;5.07;;
9524;SDS011;15940;48.734;9.112;2023-04-06T14:34:29;5.37;;;4.90;;
9524;SDS011;15940;48.734;9.112;2023-04-06T14:36:56;5.87;;;5.23;;
9524;SDS011;15940;48.734;9.112;2023-04-06T14:39:23;5.40;;;4.90;;
9524;SDS011;15940;48.734;9.112;2023-04-06T14:41:51;6.67;;;4.90;;
9524;SDS011;15940;48.734;9.112;2023-04-06T14:44:18;7.83;;;5.53;;
9524;SDS011;15940;48.734;9.112;2023-04-06T14:46:46;7.13;;;5.00;;
9524;SDS011;15940;48.734;9.112;2023-04-06T14:49:13;9.47;;;6.50;;
9524;SDS011;15940;48.734;9.112;2023-04-06T14:51:40;5.63;;;4.43;;
9524;SDS011;15940;48.734;9.112;2023-04-06T14:54:07;4.77;;;4.13;;
9524;SDS011;15940;48.734;9.112;2023-04-06T14:56:34;4.00;;;3.70;;
9524;SDS011;15940;48.734;9.112;2023-04-06T14:59:02;5.13;;;4.33;;
9524;SDS011;15940;48.734;9.112;2023-04-06T15:01:33;5.33;;;4.30;;
9524;SDS011;15940;48.734;9.112;2023-04-06T15:04:01;4.43;;;4.07;;
9524;SDS011;15940;48.734;9.112;2023-04-06T15:06:29;5.17;;;4.27;;